Time;durP1;ratioP1;P1;durP2;ratioP2;P2;SDS_P1;SDS_P2;PMS_P1;PMS_P2;Temp;Humidity;BMP_temperature;BMP_pressure;BME280_temperature;BME280_humidity;BME280_pressure;Samples;Min_cycle;Max_cycle;Signal;HPM_P1;HPM_P2
2024/04/03 00:01:21;;;;;;;2.90;1.13;;;;;;;8.40;58.22;95038.91;5063221;28;20739;-79
2024/04/03 00:03:46;;;;;;;2.13;1.20;;;;;;;8.37;58.17;95036.59;5081900;28;20235;-79
2024/04/03 00:06:12;;;;;;;2.83;1.00;;;;;;;8.42;58.69;95029.22;5077116;28;20188;-79
2024/04/03 00:08:37;;;;;;;2.37;1.00;;;;;;;8.41;58.55;95019.84;5074516;28;20283;-79
2024/04/03 00:11:03;;;;;;;2.47;0.93;;;;;;;8.39;58.76;95022.56;5051253;28;20193;-80
2024/04/03 00:13:28;;;;;;;4.20;0.97;;;;;;;8.34;59.31;95013.59;5089689;28;20193;-80
2024/04/03 00:15:54;;;;;;;4.57;0.80;;;;;;;8.34;59.41;95023.94;5066623;28;20185;-80
2024/04/03 00:18:19;;;;;;;1.87;1.10;;;;;;;8.26;59.94;95024.66;5063162;28;20219;-80
2024/04/03 00:20:45;;;;;;;5.10;1.10;;;;;;;8.17;59.86;95023.75;5051986;28;20196;-80
2024/04/03 00:23:10;;;;;;;3.77;1.13;;;;;;;8.21;59.60;95019.91;5071943;28;20187;-80
2024/04/03 00:25:35;;;;;;;3.13;1.10;;;;;;;8.15;59.84;95015.34;5064495;28;20193;-80
2024/04/03 00:28:01;;;;;;;2.77;1.17;;;;;;;8.07;60.20;95012.66;5076676;28;20208;-80
2024/04/03 00:30:26;;;;;;;6.60;1.60;;;;;;;8.02;60.39;95011.47;5071757;28;20200;-79
2024/04/03 00:32:51;;;;;;;4.10;1.27;;;;;;;7.99;60.58;95004.81;5068589;28;20201;-79
2024/04/03 00:35:16;;;;;;;2.90;1.13;;;;;;;7.98;60.62;95007.56;5067391;28;20238;-79
2024/04/03 00:37:42;;;;;;;3.70;1.00;;;;;;;7.93;61.03;95005.38;5066028;28;20700;-80
2024/04/03 00:40:07;;;;;;;2.63;0.97;;;;;;;7.81;60.84;95004.78;5088861;28;20224;-79
2024/04/03 00:42:33;;;;;;;6.73;1.40;;;;;;;7.75;61.02;94996.78;5044740;28;20196;-80
2024/04/03 00:44:58;;;;;;;3.33;1.10;;;;;;;7.65;61.96;94989.06;5052275;28;20280;-79
2024/04/03 00:47:24;;;;;;;6.73;1.30;;;;;;;7.62;62.06;94990.19;5052743;28;20180;-79
2024/04/03 00:49:50;;;;;;;5.27;1.40;;;;;;;7.57;62.32;94988.97;5053650;28;20216;-80
2024/04/03 00:52:17;;;;;;;1.87;1.27;;;;;;;7.50;62.66;94985.31;5060712;28;20482;-79
2024/04/03 00:54:43;;;;;;;4.63;1.10;;;;;;;7.39;63.14;94981.16;5071464;28;20196;-80
2024/04/03 00:57:09;;;;;;;3.93;1.27;;;;;;;7.45;63.52;94983.19;5088799;28;20246;-80
2024/04/03 00:59:34;;;;;;;2.67;1.17;;;;;;;7.38;63.84;94975.19;5082352;28;20209;-80
2024/04/03 01:02:01;;;;;;;5.17;1.37;;;;;;;7.34;63.80;94979.00;5084908;28;20260;-79
2024/04/03 01:04:26;;;;;;;3.43;1.60;;;;;;;7.21;64.69;94972.53;5071926;28;20683;-80
2024/04/03 01:06:51;;;;;;;4.50;1.50;;;;;;;7.23;64.59;94978.34;5073541;28;20184;-80
2024/04/03 01:09:17;;;;;;;2.77;1.10;;;;;;;7.18;65.06;94977.97;5073061;28;20253;-79
2024/04/03 01:11:42;;;;;;;3.30;1.23;;;;;;;7.13;65.35;94975.81;5067616;28;20189;-79
2024/04/03 01:14:07;;;;;;;3.37;1.20;;;;;;;7.11;65.71;94977.72;5078131;28;20188;-79
2024/04/03 01:16:34;;;;;;;2.00;1.37;;;;;;;7.16;65.83;94974.72;5050339;28;20209;-80
2024/04/03 01:18:59;;;;;;;2.90;1.30;;;;;;;7.19;65.73;94964.09;5087388;28;20225;-80
2024/04/03 01:21:25;;;;;;;2.60;1.07;;;;;;;7.16;65.59;94969.56;5074731;28;20608;-80
2024/04/03 01:23:52;;;;;;;2.07;1.03;;;;;;;7.07;66.12;94961.72;5057504;28;20646;-79
2024/04/03 01:26:18;;;;;;;4.07;1.63;;;;;;;7.09;65.92;94964.94;5066822;28;20235;-79
2024/04/03 01:28:43;;;;;;;5.50;1.50;;;;;;;6.98;66.22;94961.69;5075239;28;20201;-79
2024/04/03 01:31:08;;;;;;;2.63;1.13;;;;;;;7.09;65.86;94957.22;5092925;28;20646;-80
2024/04/03 01:33:33;;;;;;;3.00;1.30;;;;;;;7.12;65.72;94960.47;5071957;28;20185;-80
2024/04/03 01:36:00;;;;;;;2.87;1.17;;;;;;;7.02;66.06;94955.31;5085436;28;20553;-80
2024/04/03 01:38:25;;;;;;;3.57;1.20;;;;;;;7.12;65.64;94948.34;5092662;28;20218;-79
2024/04/03 01:40:52;;;;;;;3.33;1.10;;;;;;;7.12;65.69;94958.69;5068705;28;20272;-80
2024/04/03 01:43:18;;;;;;;5.10;1.40;;;;;;;7.01;66.26;94949.34;5077130;28;20246;-79
2024/04/03 01:45:43;;;;;;;3.43;1.40;;;;;;;7.16;65.55;94946.31;5068477;28;20192;-80
2024/04/03 01:48:08;;;;;;;2.10;1.30;;;;;;;7.00;66.26;94944.34;5065190;28;20274;-79
2024/04/03 01:50:38;;;;;;;4.13;1.20;;;;;;;7.08;66.02;94945.25;5062423;28;20204;-80
2024/04/03 01:53:03;;;;;;;3.90;1.10;;;;;;;7.17;65.54;94950.53;5101081;28;20199;-80
2024/04/03 01:55:29;;;;;;;6.13;1.60;;;;;;;7.07;65.51;94943.63;5079770;28;20676;-80
2024/04/03 01:57:54;;;;;;;4.00;1.30;;;;;;;7.17;65.47;94947.94;5076382;28;20228;-79
2024/04/03 02:00:19;;;;;;;3.53;1.40;;;;;;;7.19;65.24;94940.88;5096153;28;20181;-79
2024/04/03 02:02:45;;;;;;;3.40;1.40;;;;;;;7.37;64.64;94946.91;5078405;28;20207;-79
2024/04/03 02:05:10;;;;;;;3.17;1.10;;;;;;;7.50;64.18;94931.88;5095362;28;20184;-79
2024/04/03 02:07:36;;;;;;;3.27;1.00;;;;;;;7.40;64.01;94931.13;5082367;28;20924;-79
2024/04/03 02:10:02;;;;;;;2.43;1.20;;;;;;;7.63;63.54;94927.19;5103198;28;20208;-80
2024/04/03 02:12:28;;;;;;;2.37;1.07;;;;;;;7.55;63.62;94916.78;5091335;28;20256;-80
2024/04/03 02:14:53;;;;;;;2.53;1.03;;;;;;;7.69;63.16;94915.47;5074292;28;20217;-80
2024/04/03 02:17:18;;;;;;;7.27;1.20;;;;;;;7.70;63.26;94911.13;5077564;28;20212;-80
2024/04/03 02:19:44;;;;;;;5.80;2.30;;;;;;;7.80;62.78;94914.47;5072067;28;20219;-81
2024/04/03 02:22:09;;;;;;;3.90;1.40;;;;;;;7.86;62.37;94911.25;5095210;28;20212;-80
2024/04/03 02:24:34;;;;;;;2.50;0.80;;;;;;;7.77;62.79;94906.97;5073883;28;20315;-78
2024/04/03 02:27:00;;;;;;;2.83;0.97;;;;;;;7.86;62.16;94916.44;5065447;28;20189;-81
2024/04/03 02:29:25;;;;;;;3.73;1.00;;;;;;;7.86;62.31;94916.44;5083146;28;20208;-80
2024/04/03 02:31:50;;;;;;;5.77;1.30;;;;;;;7.90;62.20;94907.44;5093245;28;20180;-79
2024/04/03 02:34:16;;;;;;;3.17;1.30;;;;;;;7.85;62.49;94907.06;5056325;28;20677;-79
2024/04/03 02:36:42;;;;;;;2.73;0.90;;;;;;;7.75;62.68;94898.56;5065618;28;20184;-79
2024/04/03 02:39:07;;;;;;;2.47;0.97;;;;;;;7.91;62.14;94904.72;5056804;28;20700;-80
2024/04/03 02:41:32;;;;;;;3.83;1.10;;;;;;;7.82;62.50;94899.59;5068128;28;20659;-79
2024/04/03 02:43:58;;;;;;;2.63;1.10;;;;;;;7.75;62.31;94894.19;5054640;28;20325;-79
2024/04/03 02:46:23;;;;;;;2.90;1.10;;;;;;;7.89;62.54;94891.13;5069742;28;20678;-79
2024/04/03 02:48:48;;;;;;;3.70;1.00;;;;;;;7.79;62.60;94889.56;5058042;28;20265;-79
2024/04/03 02:51:14;;;;;;;2.30;1.20;;;;;;;7.95;61.80;94885.38;5078098;28;20211;-79
2024/04/03 02:53:40;;;;;;;3.03;1.00;;;;;;;7.76;62.33;94884.69;5050494;28;20226;-79
2024/04/03 02:56:06;;;;;;;1.30;0.70;;;;;;;7.92;62.26;94883.06;5074607;28;20241;-79
2024/04/03 02:58:32;;;;;;;4.70;1.10;;;;;;;7.98;61.85;94886.03;5088648;28;20220;-79
2024/04/03 03:01:08;;;;;;;1.87;1.07;;;;;;;7.91;62.50;94878.03;5070273;28;20181;-79
2024/04/03 03:03:33;;;;;;;4.53;1.27;;;;;;;8.03;62.11;94868.28;5082950;28;20196;-80
2024/04/03 03:06:00;;;;;;;2.07;1.10;;;;;;;7.96;62.09;94875.84;5056607;28;20185;-79
2024/04/03 03:08:26;;;;;;;2.13;0.83;;;;;;;7.95;62.42;94866.44;5085663;28;20204;-79
2024/04/03 03:10:52;;;;;;;3.57;1.10;;;;;;;8.00;61.85;94866.81;5085798;28;20215;-79
2024/04/03 03:13:18;;;;;;;3.40;1.00;;;;;;;7.95;61.82;94856.94;5072939;28;20691;-79
2024/04/03 03:15:57;;;;;;;3.67;1.03;;;;;;;8.06;61.77;94853.31;5050719;28;20189;-79
2024/04/03 03:18:25;;;;;;;2.83;0.90;;;;;;;8.15;61.33;94855.00;5077053;28;20204;-79
2024/04/03 03:20:51;;;;;;;2.30;0.90;;;;;;;8.07;61.51;94848.94;5088131;28;20556;-79
2024/04/03 03:23:17;;;;;;;2.53;1.00;;;;;;;8.14;61.05;94850.78;5063796;28;20191;-79
2024/04/03 03:25:44;;;;;;;3.80;1.10;;;;;;;8.16;61.31;94848.84;5066839;28;20197;-79
2024/04/03 03:28:10;;;;;;;3.17;1.30;;;;;;;8.15;61.27;94847.22;5047798;28;20208;-79
2024/04/03 03:30:35;;;;;;;3.90;1.17;;;;;;;8.06;61.77;94837.78;5058684;28;20184;-80
2024/04/03 03:33:01;;;;;;;2.90;1.50;;;;;;;8.04;61.91;94834.53;5056034;28;20620;-80
2024/04/03 03:35:26;;;;;;;1.83;1.10;;;;;;;8.17;61.00;94826.38;5069822;28;20535;-80
2024/04/03 03:37:51;;;;;;;3.17;1.10;;;;;;;8.29;61.07;94826.94;5050851;28;20220;-79
2024/04/03 03:40:18;;;;;;;1.57;1.07;;;;;;;8.33;60.74;94820.53;5069328;28;20668;-79
2024/04/03 03:42:43;;;;;;;2.07;0.93;;;;;;;8.31;61.30;94815.50;5067646;28;20274;-79
2024/04/03 03:45:08;;;;;;;3.60;1.20;;;;;;;8.34;61.04;94825.53;5072568;28;20200;-79
2024/04/03 03:47:34;;;;;;;2.43;1.00;;;;;;;8.31;60.43;94819.88;5072837;28;20239;-79
2024/04/03 03:52:43;;;;;;;4.30;1.20;;;;;;;8.30;60.68;94818.22;5076529;28;20216;-79
2024/04/03 03:55:08;;;;;;;2.80;1.07;;;;;;;8.13;61.44;94818.13;5053705;28;20649;-80
2024/04/03 03:57:34;;;;;;;2.13;0.80;;;;;;;8.19;61.14;94814.94;5070869;28;20206;-79
2024/04/03 03:59:59;;;;;;;2.97;1.10;;;;;;;8.11;61.42;94814.84;5070880;28;20209;-78
2024/04/03 04:02:25;;;;;;;2.30;0.90;;;;;;;8.17;60.86;94816.03;5043027;28;20220;-79
2024/04/03 04:04:54;;;;;;;0.80;0.77;;;;;;;8.18;61.18;94812.50;5065249;28;20479;-79
2024/04/03 04:07:20;;;;;;;3.40;1.33;;;;;;;8.14;61.10;94817.16;5068829;28;20271;-79
2024/04/03 04:09:50;;;;;;;4.30;1.23;;;;;;;8.00;61.35;94819.47;5068528;28;20200;-78
2024/04/03 04:12:16;;;;;;;2.23;1.00;;;;;;;8.08;61.31;94817.75;5050127;28;20188;-79
2024/04/03 04:14:47;;;;;;;4.33;0.83;;;;;;;7.92;61.91;94813.25;5055328;28;20189;-78
2024/04/03 04:17:14;;;;;;;2.57;1.10;;;;;;;8.10;61.72;94805.47;5069897;28;20257;-79
2024/04/03 04:19:39;;;;;;;2.90;1.03;;;;;;;7.90;61.52;94814.38;5084025;28;20681;-79
2024/04/03 04:22:05;;;;;;;1.43;0.90;;;;;;;8.09;61.16;94814.22;5054751;28;20200;-79
2024/04/03 04:24:30;;;;;;;3.37;1.03;;;;;;;8.06;61.46;94813.72;5053733;28;20200;-79
2024/04/03 04:27:00;;;;;;;2.90;1.00;;;;;;;8.02;61.63;94813.19;5049101;28;20201;-79
2024/04/03 04:29:27;;;;;;;2.40;1.10;;;;;;;8.15;60.97;94813.63;5080559;28;20311;-79
2024/04/03 04:31:53;;;;;;;1.20;0.90;;;;;;;8.33;60.26;94810.19;5072236;28;20654;-79
2024/04/03 04:34:18;;;;;;;4.33;1.10;;;;;;;8.21;60.81;94813.00;5051939;28;20180;-79
2024/04/03 04:36:44;;;;;;;1.77;1.20;;;;;;;8.15;60.92;94811.03;5048732;28;20196;-80
2024/04/03 04:39:09;;;;;;;5.00;1.13;;;;;;;8.33;60.42;94810.19;5072870;28;20289;-79
2024/04/03 04:41:34;;;;;;;2.30;1.10;;;;;;;8.19;60.80;94807.16;5077169;28;20184;-79
2024/04/03 04:44:01;;;;;;;2.13;1.37;;;;;;;8.15;60.85;94808.44;5055939;28;20666;-79
2024/04/03 04:46:26;;;;;;;2.10;1.00;;;;;;;8.22;60.87;94811.25;5054023;28;20211;-79
2024/04/03 04:48:52;;;;;;;3.57;1.37;;;;;;;8.16;61.04;94819.59;5077243;28;20205;-80
2024/04/03 04:51:19;;;;;;;2.67;1.00;;;;;;;8.10;61.07;94826.16;5053959;28;20188;-80
2024/04/03 04:53:45;;;;;;;3.00;0.90;;;;;;;8.09;61.34;94821.16;5048600;28;20188;-79
2024/04/03 04:56:10;;;;;;;1.43;0.80;;;;;;;8.18;60.84;94815.88;5079156;28;20198;-79
2024/04/03 04:58:35;;;;;;;2.47;0.83;;;;;;;8.10;61.11;94826.16;5089494;28;20227;-80
2024/04/03 05:01:05;;;;;;;3.00;1.63;;;;;;;8.16;60.99;94825.59;5089223;28;20637;-79
2024/04/03 05:03:31;;;;;;;2.60;0.90;;;;;;;8.15;60.75;94828.31;5077043;28;20189;-79
2024/04/03 05:05:57;;;;;;;3.57;1.00;;;;;;;8.15;61.22;94820.56;5093663;28;20207;-79
2024/04/03 05:08:22;;;;;;;3.87;1.00;;;;;;;8.13;61.00;94825.88;5078304;28;20200;-79
2024/04/03 05:10:56;;;;;;;1.00;0.90;;;;;;;8.20;61.09;94832.06;5072304;28;20617;-79
2024/04/03 05:13:26;;;;;;;1.30;0.90;;;;;;;8.09;61.30;94842.66;5058610;28;20197;-79
2024/04/03 05:15:51;;;;;;;2.60;0.93;;;;;;;8.15;61.29;94831.72;5082011;28;20714;-81
2024/04/03 05:18:17;;;;;;;2.17;1.10;;;;;;;8.13;61.04;94830.25;5048997;28;20289;-78
2024/04/03 05:20:42;;;;;;;3.03;1.97;;;;;;;8.19;61.37;94835.63;5053581;28;20219;-79
2024/04/03 05:23:08;;;;;;;3.57;2.10;;;;;;;8.24;61.39;94837.75;5075607;28;20241;-79
2024/04/03 05:25:33;;;;;;;4.43;1.70;;;;;;;8.24;61.53;94833.41;5071943;28;20673;-79
2024/04/03 05:27:59;;;;;;;2.90;1.57;;;;;;;8.26;61.01;94835.84;5045654;28;20181;-79
2024/04/03 05:30:24;;;;;;;2.23;1.27;;;;;;;8.20;61.12;94836.44;5054240;28;20215;-78
2024/04/03 05:32:52;;;;;;;2.47;1.17;;;;;;;8.37;60.42;94842.56;5054513;28;20794;-79
2024/04/03 05:35:18;;;;;;;3.43;1.00;;;;;;;8.20;60.56;94839.00;5054419;28;20583;-79
2024/04/03 05:37:44;;;;;;;1.83;1.00;;;;;;;8.42;59.94;94840.34;5076850;28;20204;-78
2024/04/03 05:40:10;;;;;;;3.13;0.93;;;;;;;8.38;60.14;94845.00;5085254;28;20653;-78
2024/04/03 05:42:35;;;;;;;1.93;0.90;;;;;;;8.38;60.14;94854.53;5080332;28;20268;-79
2024/04/03 05:45:02;;;;;;;1.47;0.97;;;;;;;8.30;60.11;94867.38;5070716;28;20724;-79
2024/04/03 05:47:28;;;;;;;4.07;0.90;;;;;;;8.42;60.28;94861.03;5053452;28;20261;-79
2024/04/03 05:49:54;;;;;;;2.63;1.27;;;;;;;8.29;60.44;94863.16;5057904;28;20224;-79
2024/04/03 05:52:20;;;;;;;2.93;0.70;;;;;;;8.30;61.94;94868.19;5077800;28;20268;-79
2024/04/03 05:54:46;;;;;;;2.07;0.70;;;;;;;8.68;62.70;94867.03;5086571;28;20188;-78
2024/04/03 05:57:12;;;;;;;3.77;0.90;;;;;;;8.82;64.25;94838.94;5079654;28;20184;-79
2024/04/03 05:59:38;;;;;;;3.00;2.63;;;;;;;8.95;63.92;94835.00;5081896;28;20604;-79
2024/04/03 06:02:03;;;;;;;1.03;0.63;;;;;;;9.05;65.03;94842.63;5068719;28;20228;-79
2024/04/03 06:04:28;;;;;;;2.00;0.60;;;;;;;9.22;64.88;94846.91;5065567;28;20191;-78
2024/04/03 06:06:54;;;;;;;2.13;1.10;;;;;;;9.17;66.00;94849.16;5078108;28;20236;-79
2024/04/03 06:09:19;;;;;;;4.10;0.87;;;;;;;9.18;66.72;94861.13;5052552;28;20304;-79
2024/04/03 06:11:45;;;;;;;2.27;0.87;;;;;;;9.31;66.85;94860.72;5077372;28;20592;-80
2024/04/03 06:14:10;;;;;;;1.73;0.70;;;;;;;9.28;66.96;94859.25;5056127;28;20188;-79
2024/04/03 06:16:35;;;;;;;3.37;0.80;;;;;;;9.36;66.86;94851.53;5067703;28;20552;-79
2024/04/03 06:19:03;;;;;;;3.50;0.60;;;;;;;9.40;67.01;94856.38;5066921;28;20600;-79
2024/04/03 06:21:28;;;;;;;3.70;0.70;;;;;;;9.39;66.79;94865.13;5071604;28;20193;-79
2024/04/03 06:23:54;;;;;;;2.40;0.90;;;;;;;9.45;66.78;94865.28;5074458;28;20184;-80
2024/04/03 06:26:19;;;;;;;0.60;0.50;;;;;;;9.63;66.44;94873.78;5087751;28;20189;-79
2024/04/03 06:28:45;;;;;;;2.00;0.60;;;;;;;9.64;66.84;94885.78;5061079;28;20219;-80
2024/04/03 06:31:11;;;;;;;3.43;0.90;;;;;;;9.75;65.86;94871.69;5059489;28;20653;-80
2024/04/03 06:33:36;;;;;;;2.17;0.80;;;;;;;9.84;66.06;94888.91;5068705;28;20191;-81
2024/04/03 06:36:01;;;;;;;4.87;1.17;;;;;;;9.71;66.10;94895.50;5059438;28;20280;-82
2024/04/03 06:38:27;;;;;;;2.60;0.90;;;;;;;9.80;66.06;94887.56;5078418;28;20216;-83
2024/04/03 06:40:53;;;;;;;4.37;0.80;;;;;;;9.83;65.92;94895.06;5075343;28;20259;-80
2024/04/03 06:43:18;;;;;;;2.67;0.73;;;;;;;9.85;65.83;94903.47;5061664;28;20204;-79
2024/04/03 06:45:43;;;;;;;1.10;0.80;;;;;;;9.89;65.87;94910.00;5053259;28;20192;-80
2024/04/03 06:48:08;;;;;;;0.93;0.60;;;;;;;9.81;66.91;94912.56;5088002;28;20205;-81
2024/04/03 06:50:34;;;;;;;3.37;1.37;;;;;;;9.71;67.57;94911.88;5058581;28;20669;-80
2024/04/03 06:53:00;;;;;;;4.43;0.90;;;;;;;9.19;68.89;94917.19;5066539;28;20189;-80
2024/04/03 06:55:25;;;;;;;2.10;1.10;;;;;;;9.62;68.53;94908.44;5067998;28;20189;-80
2024/04/03 06:57:51;;;;;;;2.67;0.50;;;;;;;9.30;68.90;94903.16;5071814;28;20207;-79
2024/04/03 07:00:16;;;;;;;1.47;0.57;;;;;;;9.34;69.55;94901.84;5054587;28;20657;-80
2024/04/03 07:02:43;;;;;;;2.93;0.80;;;;;;;9.31;70.45;94902.19;5080372;28;20200;-80
2024/04/03 07:05:09;;;;;;;2.13;0.60;;;;;;;9.13;70.80;94904.84;5088614;28;20214;-81
2024/04/03 07:07:37;;;;;;;0.97;0.70;;;;;;;9.42;70.44;94906.25;5068251;28;20192;-81
2024/04/03 07:10:03;;;;;;;0.90;0.50;;;;;;;9.12;71.60;94916.16;5077710;28;20208;-81
2024/04/03 07:12:28;;;;;;;6.17;1.13;;;;;;;9.18;71.77;94907.75;5066324;28;20184;-80
2024/04/03 07:14:54;;;;;;;1.53;0.53;;;;;;;9.24;72.79;94895.97;5074264;28;20196;-81
2024/04/03 07:17:20;;;;;;;0.87;0.70;;;;;;;9.26;73.52;94892.25;5063245;28;20188;-81
2024/04/03 07:19:45;;;;;;;0.80;0.60;;;;;;;8.85;74.39;94888.66;5051821;28;20291;-80
2024/04/03 07:22:11;;;;;;;1.37;0.60;;;;;;;9.13;73.79;94886.72;5083829;28;20196;-80
2024/04/03 07:24:36;;;;;;;4.40;1.00;;;;;;;9.23;73.70;94886.59;5054356;28;20189;-80
2024/04/03 07:27:02;;;;;;;2.03;0.77;;;;;;;9.26;73.11;94891.44;5047055;28;20612;-80
2024/04/03 07:29:27;;;;;;;1.60;0.50;;;;;;;9.40;73.16;94890.06;5063200;28;20749;-80
2024/04/03 07:31:52;;;;;;;3.47;0.80;;;;;;;9.65;72.91;94891.78;5056525;28;20337;-78
2024/04/03 07:34:18;;;;;;;2.30;1.13;;;;;;;9.77;73.11;94887.91;5074975;28;20191;-81
2024/04/03 07:36:44;;;;;;;3.07;1.00;;;;;;;9.73;73.61;94885.81;5050609;28;20230;-79
2024/04/03 07:39:10;;;;;;;2.07;0.80;;;;;;;9.99;72.85;94875.31;5047665;28;20216;-78
2024/04/03 07:41:35;;;;;;;2.90;1.10;;;;;;;10.12;72.84;94873.84;5079211;28;20711;-79
2024/04/03 07:44:02;;;;;;;2.70;1.27;;;;;;;10.34;72.57;94876.84;5051997;28;20199;-79
2024/04/03 07:46:27;;;;;;;5.10;1.50;;;;;;;10.38;72.36;94878.94;5068422;28;20280;-80
2024/04/03 07:48:53;;;;;;;6.10;1.47;;;;;;;10.30;72.27;94878.94;5053135;28;20295;-80
2024/04/03 07:51:18;;;;;;;4.10;0.90;;;;;;;10.33;70.93;94876.00;5053256;28;20216;-80
2024/04/03 07:53:44;;;;;;;2.60;0.83;;;;;;;10.54;70.65;94875.53;5071343;28;20265;-80
2024/04/03 07:56:11;;;;;;;3.30;1.30;;;;;;;10.37;70.12;94881.69;5073398;28;20615;-80
2024/04/03 07:58:36;;;;;;;4.10;1.17;;;;;;;10.45;69.06;94879.91;5087451;28;20295;-80
2024/04/03 08:01:02;;;;;;;3.10;1.10;;;;;;;10.90;68.14;94872.56;5086070;28;20246;-80
2024/04/03 08:03:28;;;;;;;3.20;0.90;;;;;;;10.92;68.01;94874.00;5061428;28;20576;-80
2024/04/03 08:05:54;;;;;;;3.67;0.83;;;;;;;10.97;67.81;94871.72;5074294;28;20185;-80
2024/04/03 08:08:21;;;;;;;2.27;0.77;;;;;;;11.02;67.96;94871.22;5073382;28;20281;-80
2024/04/03 08:10:47;;;;;;;1.60;0.80;;;;;;;11.22;66.87;94869.03;5069951;28;20180;-80
2024/04/03 08:13:12;;;;;;;1.37;0.70;;;;;;;11.28;66.52;94869.19;5063516;28;20192;-80
2024/04/03 08:15:37;;;;;;;2.30;0.83;;;;;;;11.38;66.10;94861.16;5078370;28;20566;-80
2024/04/03 08:18:03;;;;;;;1.43;0.77;;;;;;;11.65;64.66;94862.50;5051181;28;20217;-80
2024/04/03 08:20:28;;;;;;;3.23;0.90;;;;;;;11.68;65.14;94862.19;5088968;28;20196;-80
2024/04/03 08:22:54;;;;;;;3.43;0.80;;;;;;;11.76;63.43;94863.94;5054110;28;20295;-79
2024/04/03 08:25:19;;;;;;;2.83;0.80;;;;;;;11.81;62.71;94862.44;5074280;28;20198;-79
2024/04/03 08:27:44;;;;;;;0.73;0.60;;;;;;;12.09;62.59;94862.75;5081255;28;20184;-81
2024/04/03 08:30:10;;;;;;;1.83;1.00;;;;;;;11.83;61.37;94862.28;5091998;28;20180;-81
2024/04/03 08:32:35;;;;;;;1.80;0.90;;;;;;;12.13;61.07;94860.63;5078356;28;20230;-81
2024/04/03 08:35:00;;;;;;;2.67;1.43;;;;;;;11.59;61.67;94861.41;5055212;28;20196;-80
2024/04/03 08:37:26;;;;;;;1.27;1.00;;;;;;;11.86;60.24;94859.34;5063477;28;20581;-80
2024/04/03 08:39:52;;;;;;;1.00;0.50;;;;;;;12.12;59.41;94856.41;5077230;28;20255;-81
2024/04/03 08:42:18;;;;;;;8.63;5.43;;;;;;;11.87;59.32;94856.56;5082068;28;20184;-81
2024/04/03 08:44:44;;;;;;;10.50;6.83;;;;;;;11.94;58.34;94851.50;5068201;28;20197;-81
2024/04/03 08:47:09;;;;;;;2.90;1.93;;;;;;;12.32;58.61;94839.34;5083985;28;20704;-80
2024/04/03 08:49:36;;;;;;;4.20;1.83;;;;;;;12.22;59.17;94846.56;5071271;28;20291;-81
2024/04/03 08:52:06;;;;;;;2.00;1.23;;;;;;;12.66;57.93;94838.88;5068893;28;20181;-80
2024/04/03 08:54:32;;;;;;;1.13;0.60;;;;;;;12.59;55.86;94845.78;5086467;28;20207;-81
2024/04/03 08:57:01;;;;;;;2.50;1.00;;;;;;;12.98;56.53;94842.94;5072690;28;20632;-81
2024/04/03 08:59:27;;;;;;;2.13;0.80;;;;;;;13.20;55.79;94836.06;5070936;28;20212;-80
2024/04/03 09:01:52;;;;;;;0.93;0.90;;;;;;;13.29;54.80;94836.78;5061938;28;20287;-81
2024/04/03 09:04:19;;;;;;;3.57;1.20;;;;;;;13.14;54.67;94834.13;5074631;28;20260;-81
2024/04/03 09:06:45;;;;;;;1.13;0.70;;;;;;;13.05;54.68;94830.81;5070299;28;20216;-81
2024/04/03 09:09:25;;;;;;;4.23;0.90;;;;;;;12.90;54.90;94837.84;5080178;28;20707;-79
2024/04/03 09:11:59;;;;;;;2.73;0.77;;;;;;;12.64;54.74;94833.03;5066187;28;20229;-79
2024/04/03 09:14:24;;;;;;;1.30;0.87;;;;;;;13.03;55.78;94838.00;5082222;28;20184;-80
2024/04/03 09:16:50;;;;;;;1.07;0.80;;;;;;;12.89;55.87;94837.97;5085731;28;20191;-79
2024/04/03 09:19:15;;;;;;;3.17;0.90;;;;;;;13.11;55.10;94829.28;5045767;28;20221;-80
2024/04/03 09:21:41;;;;;;;3.63;1.00;;;;;;;13.10;54.24;94830.28;5063636;28;20331;-79
2024/04/03 09:24:08;;;;;;;1.27;0.63;;;;;;;13.05;55.12;94827.38;5085668;28;20184;-80
2024/04/03 09:26:34;;;;;;;1.97;0.70;;;;;;;12.98;54.23;94823.88;5053307;28;20193;-80
2024/04/03 09:29:00;;;;;;;2.87;0.70;;;;;;;12.39;54.75;94834.25;5080074;28;20205;-79
2024/04/03 09:31:26;;;;;;;3.47;0.90;;;;;;;12.33;55.58;94834.94;5088163;28;20184;-80
2024/04/03 09:33:53;;;;;;;1.50;0.53;;;;;;;12.56;54.79;94827.91;5082631;28;20203;-80
2024/04/03 09:36:20;;;;;;;0.57;0.57;;;;;;;12.69;55.50;94835.91;5071034;28;20192;-80
2024/04/03 09:38:45;;;;;;;0.40;0.30;;;;;;;12.40;54.89;94828.03;5079743;28;20263;-81
2024/04/03 09:41:13;;;;;;;1.80;0.40;;;;;;;12.35;54.75;94835.56;5096197;28;20184;-80
2024/04/03 09:43:38;;;;;;;0.70;0.70;;;;;;;12.52;53.96;94836.22;5084178;28;20205;-79
2024/04/03 09:46:08;;;;;;;0.53;0.40;;;;;;;12.97;54.46;94832.69;5068848;28;20189;-79
2024/04/03 09:48:34;;;;;;;0.70;0.50;;;;;;;13.36;54.58;94834.25;5071021;28;20804;-79
2024/04/03 09:51:00;;;;;;;0.63;0.40;;;;;;;12.59;53.98;94824.13;5056283;28;20233;-80
2024/04/03 09:53:27;;;;;;;0.40;0.30;;;;;;;12.88;53.77;94823.34;5060396;28;20191;-79
2024/04/03 09:55:53;;;;;;;0.60;0.40;;;;;;;12.95;52.98;94829.47;5051444;28;20191;-80
2024/04/03 09:58:21;;;;;;;0.97;0.60;;;;;;;13.29;54.36;94850.63;5072511;28;20212;-81
2024/04/03 10:00:58;;;;;;;0.40;0.40;;;;;;;13.07;53.09;94827.22;5067500;28;20586;-84
2024/04/03 10:03:29;;;;;;;1.20;0.50;;;;;;;13.14;52.96;94834.13;5076982;28;20189;-80
2024/04/03 10:05:59;;;;;;;0.60;0.50;;;;;;;12.94;52.78;94836.47;5060013;28;20307;-80
2024/04/03 10:08:34;;;;;;;0.97;0.40;;;;;;;13.13;52.21;94842.13;5075930;28;20224;-80
2024/04/03 10:11:10;;;;;;;2.27;0.43;;;;;;;12.92;52.75;94835.84;5089836;28;20188;-80
2024/04/03 10:13:38;;;;;;;0.50;0.50;;;;;;;13.02;52.89;94833.78;5045959;28;20218;-80
2024/04/03 10:16:06;;;;;;;2.57;0.53;;;;;;;13.29;53.34;94829.75;5092765;28;20268;-80
2024/04/03 10:18:58;;;;;;;0.47;0.47;;;;;;;13.46;52.82;94847.81;5063183;28;20244;-80
2024/04/03 10:21:24;;;;;;;0.30;0.30;;;;;;;12.53;54.30;94828.25;5085866;28;20212;-81
2024/04/03 10:23:50;;;;;;;0.43;0.40;;;;;;;12.30;55.64;94837.91;5058443;28;20212;-80
2024/04/03 10:26:20;;;;;;;1.93;0.80;;;;;;;12.41;56.26;94834.88;5058935;28;20179;-80
2024/04/03 10:28:46;;;;;;;1.40;0.63;;;;;;;12.48;56.58;94835.78;5084872;28;20216;-81
2024/04/03 10:31:20;;;;;;;0.50;0.50;;;;;;;12.59;57.37;94829.34;5073182;28;20249;-80
2024/04/03 10:33:48;;;;;;;0.70;0.50;;;;;;;12.51;57.28;94835.44;5076773;28;20189;-80
2024/04/03 10:36:15;;;;;;;1.57;0.70;;;;;;;12.24;57.78;94830.78;5072756;28;20184;-80
2024/04/03 10:38:42;;;;;;;3.10;0.47;;;;;;;12.22;58.57;94828.34;5078275;28;20233;-82
2024/04/03 10:41:07;;;;;;;0.73;0.40;;;;;;;12.48;57.81;94838.41;5082177;28;20196;-80
2024/04/03 10:43:32;;;;;;;0.50;0.50;;;;;;;12.24;58.07;94841.19;5066129;28;20200;-83
2024/04/03 10:45:58;;;;;;;0.60;0.57;;;;;;;11.67;59.67;94834.56;5068667;28;20268;-79
2024/04/03 10:48:23;;;;;;;1.13;0.70;;;;;;;11.59;60.63;94845.81;5065651;28;20208;-79
2024/04/03 10:50:49;;;;;;;0.70;0.50;;;;;;;11.65;61.26;94836.50;5073585;28;20185;-79
2024/04/03 10:53:15;;;;;;;0.60;0.60;;;;;;;11.56;61.62;94848.75;5078174;28;20188;-80
2024/04/03 10:55:41;;;;;;;0.57;0.40;;;;;;;11.27;62.91;94838.97;5087068;28;20200;-79
2024/04/03 10:58:08;;;;;;;1.50;0.40;;;;;;;11.55;62.19;94841.09;5054930;28;20251;-80
2024/04/03 11:00:34;;;;;;;0.40;0.40;;;;;;;11.37;61.79;94843.97;5087557;28;20188;-80
2024/04/03 11:03:06;;;;;;;0.40;0.40;;;;;;;11.39;61.29;94839.41;5083303;28;20212;-80
2024/04/03 11:05:32;;;;;;;1.13;0.37;;;;;;;11.72;61.71;94844.44;5067342;28;20185;-80
2024/04/03 11:07:58;;;;;;;0.67;0.40;;;;;;;11.91;60.11;94836.22;5056021;28;20192;-79
2024/04/03 11:10:24;;;;;;;0.30;0.30;;;;;;;11.85;60.61;94839.53;5054437;28;20271;-80
2024/04/03 11:12:50;;;;;;;0.30;0.30;;;;;;;11.76;60.13;94848.34;5064948;28;20193;-81
2024/04/03 11:15:24;;;;;;;1.10;0.40;;;;;;;11.85;59.37;94831.72;5055172;28;20188;-81
2024/04/03 11:17:49;;;;;;;0.20;0.20;;;;;;;12.15;59.15;94843.03;5068914;28;20582;-80
2024/04/03 11:20:15;;;;;;;0.33;0.33;;;;;;;12.12;59.16;94836.41;5059422;28;20181;-80
2024/04/03 11:22:41;;;;;;;0.40;0.40;;;;;;;11.93;60.08;94847.28;5065606;28;20181;-78
2024/04/03 11:25:12;;;;;;;0.60;0.40;;;;;;;12.00;60.58;94835.16;5055429;28;20247;-79
2024/04/03 11:27:40;;;;;;;0.60;0.40;;;;;;;12.11;60.62;94842.59;5054980;28;20227;-80
2024/04/03 11:30:06;;;;;;;0.43;0.43;;;;;;;12.18;60.55;94846.09;5050587;28;20209;-83
2024/04/03 11:32:32;;;;;;;0.40;0.40;;;;;;;12.29;60.38;94837.09;5080963;28;20203;-80
2024/04/03 11:34:58;;;;;;;0.47;0.30;;;;;;;12.48;59.41;94843.59;5051841;28;20185;-80
2024/04/03 11:37:23;;;;;;;0.97;0.33;;;;;;;12.45;59.73;94843.94;5076069;28;20185;-79